createdAt,value
2019-03-13T00:01:04.684Z,100860.94
2019-03-13T00:03:35.785Z,100853.05
2019-03-13T00:06:07.346Z,100851.89
2019-03-13T00:08:38.759Z,100848.47
2019-03-13T00:11:11.028Z,100846.58
2019-03-13T00:13:42.247Z,100844.12
2019-03-13T00:16:13.767Z,100846.75
2019-03-13T00:18:44.998Z,100846.92
2019-03-13T00:21:16.845Z,100843.04
2019-03-13T00:23:48.502Z,100838.98
2019-03-13T00:26:19.948Z,100835.71
2019-03-13T00:28:52.320Z,100838.45
2019-03-13T00:31:23.571Z,100840.23
2019-03-13T00:33:55.530Z,100841.27
2019-03-13T00:36:26.614Z,100841.27
2019-03-13T00:38:57.891Z,100845.04
2019-03-13T00:41:29.329Z,100843.95
2019-03-13T00:44:00.671Z,100833.86
2019-03-13T00:46:31.987Z,100840.73
2019-03-13T00:49:03.429Z,100833.86
2019-03-13T00:51:36.952Z,100834.15
2019-03-13T00:54:08.582Z,100834.72
2019-03-13T00:56:39.822Z,100833.86
2019-03-13T00:59:11.015Z,100834.03
2019-03-13T01:01:52.630Z,100835.89
2019-03-13T01:04:28.625Z,100840.33
2019-03-13T01:07:01.301Z,100840.75
2019-03-13T01:09:32.488Z,100842.00
2019-03-13T01:12:04.102Z,100838.00
2019-03-13T01:14:36.268Z,100839.66
2019-03-13T01:17:08.338Z,100842.68
2019-03-13T01:19:40.734Z,100842.28
2019-03-13T01:22:12.301Z,100851.43
2019-03-13T01:24:43.716Z,100843.89
2019-03-13T01:27:15.283Z,100850.42
2019-03-13T01:29:47.958Z,100852.64
2019-03-13T01:32:36.102Z,100858.23
2019-03-13T01:35:15.133Z,100849.81
2019-03-13T01:37:46.622Z,100859.14
2019-03-13T01:40:18.135Z,100854.80
2019-03-13T01:42:49.244Z,100864.69
2019-03-13T01:45:20.728Z,100859.67
2019-03-13T01:47:52.183Z,100857.89
2019-03-13T01:50:23.735Z,100872.33
2019-03-13T01:52:55.118Z,100868.45
2019-03-13T01:55:26.637Z,100868.03
2019-03-13T01:57:58.033Z,100881.08
2019-03-13T02:00:29.340Z,100880.47
2019-03-13T02:03:00.406Z,100876.86
2019-03-13T02:05:31.737Z,100877.20
2019-03-13T02:08:03.189Z,100877.30
2019-03-13T02:10:34.647Z,100880.67
2019-03-13T02:13:06.364Z,100874.11
2019-03-13T02:15:37.644Z,100870.89
2019-03-13T02:18:08.956Z,100878.22
2019-03-13T02:20:40.173Z,100880.84
2019-03-13T02:23:11.567Z,100882.39
2019-03-13T02:25:42.833Z,100879.53
2019-03-13T02:28:15.326Z,100874.45
2019-03-13T02:30:47.886Z,100873.47
2019-03-13T02:33:19.029Z,100872.75
2019-03-13T02:35:50.176Z,100870.35
2019-03-13T02:38:21.543Z,100865.52
2019-03-13T02:40:52.776Z,100865.42
2019-03-13T02:43:24.249Z,100862.50
2019-03-13T02:45:55.529Z,100862.38
2019-03-13T02:48:26.860Z,100867.73
2019-03-13T02:50:57.991Z,100871.50
2019-03-13T02:53:29.367Z,100865.49
2019-03-13T02:56:00.677Z,100875.25
2019-03-13T02:58:32.137Z,100873.86
2019-03-13T03:01:14.845Z,100868.22
2019-03-13T03:03:51.035Z,100868.97
2019-03-13T03:06:22.346Z,100883.30
2019-03-13T03:08:53.464Z,100881.89
2019-03-13T03:11:24.740Z,100890.56
2019-03-13T03:13:56.064Z,100885.11
2019-03-13T03:16:27.402Z,100894.35
2019-03-13T03:18:58.894Z,100900.44
2019-03-13T03:21:30.403Z,100907.41
2019-03-13T03:24:01.964Z,100910.80
2019-03-13T03:26:33.254Z,100909.11
2019-03-13T03:29:04.495Z,100912.73
2019-03-13T03:31:36.775Z,100909.84
2019-03-13T03:34:08.216Z,100917.42
2019-03-13T03:36:39.466Z,100919.44
2019-03-13T03:39:10.595Z,100920.75
2019-03-13T03:41:42.018Z,100910.09
2019-03-13T03:44:13.412Z,100905.06
2019-03-13T03:46:44.709Z,100915.98
2019-03-13T03:49:16.357Z,100915.13
2019-03-13T03:51:47.986Z,100906.64
2019-03-13T03:54:19.427Z,100915.30
2019-03-13T03:56:50.939Z,100908.63
2019-03-13T03:59:22.125Z,100914.22
2019-03-13T04:01:54.296Z,100911.08
2019-03-13T04:04:25.538Z,100919.89
2019-03-13T04:06:56.785Z,100922.05
2019-03-13T04:09:28.144Z,100926.30
2019-03-13T04:11:59.533Z,100926.20
2019-03-13T04:14:30.957Z,100933.73
2019-03-13T04:17:02.188Z,100927.59
2019-03-13T04:19:33.540Z,100928.91
2019-03-13T04:22:04.686Z,100926.28
2019-03-13T04:24:36.392Z,100932.61
2019-03-13T04:27:07.748Z,100931.86
2019-03-13T04:29:39.118Z,100931.00
2019-03-13T04:32:11.725Z,100932.09
2019-03-13T04:34:43.184Z,100934.24
2019-03-13T04:37:14.625Z,100934.38
2019-03-13T04:39:45.969Z,100944.28
2019-03-13T04:42:17.186Z,100946.13
2019-03-13T04:44:48.870Z,100948.66
2019-03-13T04:47:20.529Z,100948.17
2019-03-13T04:49:51.719Z,100960.09
2019-03-13T04:52:23.094Z,100957.30
2019-03-13T04:54:54.548Z,100960.20
2019-03-13T04:57:26.363Z,100968.70
2019-03-13T04:59:57.639Z,100970.30
2019-03-13T05:02:29.209Z,100970.20
2019-03-13T05:05:01.723Z,100967.55
2019-03-13T05:07:33.166Z,100967.18
2019-03-13T05:10:07.870Z,100983.43
2019-03-13T05:12:39.149Z,100985.97
2019-03-13T05:15:12.072Z,100993.47
2019-03-13T05:17:43.771Z,100995.44
2019-03-13T05:20:15.267Z,100994.81
2019-03-13T05:22:46.901Z,101002.77
2019-03-13T05:25:19.475Z,101000.89
2019-03-13T05:27:50.684Z,101003.11
2019-03-13T05:30:23.866Z,100993.30
2019-03-13T05:32:56.091Z,100996.69
2019-03-13T05:35:27.420Z,100999.29
2019-03-13T05:37:59.109Z,101012.71
2019-03-13T05:40:30.491Z,101010.83
2019-03-13T05:43:01.931Z,101010.50
2019-03-13T05:45:33.049Z,101001.91
2019-03-13T05:48:04.292Z,101000.95
2019-03-13T05:50:35.744Z,100998.81
2019-03-13T05:53:07.194Z,101005.77
2019-03-13T05:55:38.745Z,101000.23
2019-03-13T05:58:10.916Z,101004.16
2019-03-13T06:00:43.191Z,100994.53
2019-03-13T06:03:14.360Z,101003.77
2019-03-13T06:05:45.490Z,101003.06
2019-03-13T06:08:18.522Z,101010.07
2019-03-13T06:10:49.617Z,101009.83
2019-03-13T06:13:20.775Z,101020.36
2019-03-13T06:15:52.123Z,101018.43
2019-03-13T06:18:26.899Z,101026.80
2019-03-13T06:20:58.187Z,101031.02
2019-03-13T06:23:29.527Z,101042.98
2019-03-13T06:26:00.885Z,101035.55
2019-03-13T06:28:32.355Z,101037.88
2019-03-13T06:31:03.857Z,101048.09
2019-03-13T06:33:35.732Z,101052.05
2019-03-13T06:36:08.258Z,101045.41
2019-03-13T06:38:39.673Z,101051.41
2019-03-13T06:41:11.123Z,101056.22
2019-03-13T06:43:42.109Z,101055.91
2019-03-13T06:46:13.728Z,101053.22
2019-03-13T06:48:44.986Z,101054.52
2019-03-13T06:51:17.699Z,101061.95
2019-03-13T06:53:48.900Z,101059.48
2019-03-13T06:56:20.362Z,101065.11
2019-03-13T06:58:53.441Z,101068.01
2019-03-13T07:01:44.670Z,101069.66
2019-03-13T07:04:29.829Z,101063.09
2019-03-13T07:07:05.174Z,101060.77
2019-03-13T07:09:39.683Z,101059.17
2019-03-13T07:12:29.381Z,101052.56
2019-03-13T07:15:05.246Z,101052.73
2019-03-13T07:17:38.421Z,101056.17
2019-03-13T07:20:15.454Z,101049.23
2019-03-13T07:22:51.346Z,101039.45
2019-03-13T07:25:32.089Z,101042.56
2019-03-13T07:28:08.411Z,101044.63
2019-03-13T07:30:44.925Z,101046.91
2019-03-13T07:33:21.400Z,101040.30
2019-03-13T07:36:05.242Z,101044.45
2019-03-13T07:38:38.146Z,101053.30
2019-03-13T07:41:29.190Z,101046.12
2019-03-13T07:44:19.780Z,101045.69
2019-03-13T07:46:55.484Z,101054.13
2019-03-13T07:49:34.743Z,101049.84
2019-03-13T07:52:22.886Z,101055.44
2019-03-13T07:55:01.433Z,101054.39
2019-03-13T07:57:49.579Z,101055.44
2019-03-13T08:00:28.273Z,101056.01
2019-03-13T08:03:13.481Z,101050.13
2019-03-13T08:05:49.234Z,101050.75
2019-03-13T08:08:38.615Z,101048.47
2019-03-13T08:11:14.262Z,101045.00
2019-03-13T08:13:47.870Z,101040.84
2019-03-13T08:16:35.090Z,101042.07
2019-03-13T08:19:10.447Z,101047.57
2019-03-13T08:21:56.712Z,101050.96
2019-03-13T08:24:35.955Z,101041.48
2019-03-13T08:27:23.905Z,101034.52
2019-03-13T08:30:09.469Z,101040.98
2019-03-13T08:32:43.277Z,101046.79
2019-03-13T08:35:36.292Z,101039.84
2019-03-13T08:38:26.438Z,101047.50
2019-03-13T08:41:12.950Z,101048.69
2019-03-13T08:44:03.070Z,101045.43
2019-03-13T08:46:43.861Z,101049.42
2019-03-13T08:49:20.982Z,101048.75
2019-03-13T08:51:59.697Z,101049.52
2019-03-13T08:54:48.095Z,101056.50
2019-03-13T08:57:26.996Z,101045.62
2019-03-13T08:59:59.938Z,101044.02
2019-03-13T09:02:49.439Z,101041.08
2019-03-13T09:05:22.701Z,101048.81
2019-03-13T09:07:59.728Z,101050.56
2019-03-13T09:10:51.709Z,101052.41
2019-03-13T09:13:34.371Z,101050.77
2019-03-13T09:16:08.012Z,101053.65
2019-03-13T09:18:44.030Z,101041.58
2019-03-13T09:21:21.044Z,101043.05
2019-03-13T09:24:00.532Z,101054.89
2019-03-13T09:26:39.175Z,101045.24
2019-03-13T09:29:15.777Z,101050.11
2019-03-13T09:31:51.594Z,101051.34
2019-03-13T09:34:25.549Z,101051.48
2019-03-13T09:37:01.163Z,101052.60
2019-03-13T09:39:38.818Z,101052.95
2019-03-13T09:42:11.757Z,101057.56
2019-03-13T09:45:02.863Z,101051.11
2019-03-13T09:47:57.385Z,101061.55
2019-03-13T09:50:42.064Z,101064.53
2019-03-13T09:53:15.938Z,101051.55
2019-03-13T09:56:05.192Z,101066.17
2019-03-13T09:58:42.884Z,101068.58
2019-03-13T10:01:27.973Z,101055.70
2019-03-13T10:04:04.724Z,101058.10
2019-03-13T10:06:43.265Z,101058.25
2019-03-13T10:09:33.404Z,101041.17
2019-03-13T10:12:12.281Z,101044.06
2019-03-13T10:14:45.268Z,101041.10
2019-03-13T10:17:26.879Z,101046.08
2019-03-13T10:20:08.935Z,101048.30
2019-03-13T10:22:55.068Z,101022.50
2019-03-13T10:25:43.801Z,101044.22
2019-03-13T10:28:16.558Z,101051.48
2019-03-13T10:30:52.124Z,101035.71
2019-03-13T10:33:27.992Z,101035.67
2019-03-13T10:36:04.367Z,101038.39
2019-03-13T10:38:39.003Z,101032.48
2019-03-13T10:41:30.337Z,101036.30
2019-03-13T10:44:20.303Z,101030.22
2019-03-13T10:47:05.525Z,101034.22
2019-03-13T10:49:44.013Z,101042.09
2019-03-13T10:52:16.976Z,101035.08
2019-03-13T10:55:08.045Z,101038.02
2019-03-13T10:57:40.793Z,101036.14
2019-03-13T11:00:34.042Z,101037.31
2019-03-13T11:03:18.368Z,101036.95
2019-03-13T11:06:00.709Z,101053.56
2019-03-13T11:08:39.080Z,101040.14
2019-03-13T11:11:11.992Z,101047.88
2019-03-13T11:13:59.325Z,101048.84
2019-03-13T11:16:48.786Z,101059.36
2019-03-13T11:19:21.705Z,101054.84
2019-03-13T11:21:54.399Z,101046.97
2019-03-13T11:24:34.075Z,101048.35
2019-03-13T11:27:12.947Z,101053.75
2019-03-13T11:30:02.046Z,101058.55
2019-03-13T11:32:35.205Z,101064.06
2019-03-13T11:35:14.531Z,101060.31
2019-03-13T11:37:47.281Z,101060.08
2019-03-13T11:40:23.211Z,101061.06
2019-03-13T11:42:58.932Z,101055.05
2019-03-13T11:45:49.968Z,101047.77
2019-03-13T11:48:39.509Z,101052.14
2019-03-13T11:51:29.713Z,101050.14
2019-03-13T11:54:02.994Z,101057.37
2019-03-13T11:56:45.317Z,101048.75
2019-03-13T11:59:34.220Z,101047.23
2019-03-13T12:02:19.148Z,101057.84
2019-03-13T12:04:57.637Z,101060.42
2019-03-13T12:07:31.025Z,101063.47
2019-03-13T12:10:19.898Z,101059.97
2019-03-13T12:12:55.646Z,101068.19
2019-03-13T12:15:31.286Z,101067.58
2019-03-13T12:18:04.755Z,101068.75
2019-03-13T12:20:59.352Z,101068.02
2019-03-13T12:23:43.861Z,101072.27
2019-03-13T12:26:34.777Z,101079.88
2019-03-13T12:29:22.295Z,101086.41
2019-03-13T12:32:01.223Z,101085.47
2019-03-13T12:34:42.951Z,101081.27
2019-03-13T12:37:30.971Z,101076.78
2019-03-13T12:40:20.141Z,101083.05
2019-03-13T12:43:05.089Z,101079.80
2019-03-13T12:45:47.257Z,101081.96
2019-03-13T12:48:38.204Z,101077.34
2019-03-13T12:51:13.715Z,101079.38
2019-03-13T12:53:55.667Z,101075.30
2019-03-13T12:56:31.511Z,101067.14
2019-03-13T12:59:20.772Z,101071.54
2019-03-13T13:01:59.504Z,101072.69
2019-03-13T13:04:38.101Z,101072.88
2019-03-13T13:07:13.578Z,101081.98
2019-03-13T13:09:46.437Z,101079.75
2019-03-13T13:12:38.470Z,101079.09
2019-03-13T13:15:27.347Z,101083.77
2019-03-13T13:18:06.995Z,101078.10
2019-03-13T13:20:40.285Z,101084.37
2019-03-13T13:23:11.734Z,101074.99
2019-03-13T13:25:43.801Z,101072.19
2019-03-13T13:28:19.940Z,101067.39
2019-03-13T13:30:53.204Z,101071.70
2019-03-13T13:33:24.675Z,101067.78
2019-03-13T13:35:56.040Z,101063.55
2019-03-13T13:38:27.456Z,101058.97
2019-03-13T13:40:58.822Z,101057.43
2019-03-13T13:43:32.422Z,101063.05
2019-03-13T13:46:15.183Z,101077.25
2019-03-13T13:48:46.637Z,101077.43
2019-03-13T13:51:18.037Z,101073.41
2019-03-13T13:53:49.955Z,101074.44
2019-03-13T13:56:21.694Z,101073.31
2019-03-13T13:58:53.083Z,101078.96
2019-03-13T14:01:24.204Z,101074.13
2019-03-13T14:03:56.532Z,101083.98
2019-03-13T14:06:29.189Z,101081.93
2019-03-13T14:09:00.639Z,101083.21
2019-03-13T14:11:33.345Z,101080.06
2019-03-13T14:14:09.044Z,101087.02
2019-03-13T14:16:40.720Z,101081.98
2019-03-13T14:19:11.814Z,101080.42
2019-03-13T14:21:42.864Z,101088.61
2019-03-13T14:24:17.251Z,101086.73
2019-03-13T14:26:47.900Z,101088.10
2019-03-13T14:29:20.631Z,101084.95
2019-03-13T14:31:55.439Z,101085.28
2019-03-13T14:34:27.628Z,101085.55
2019-03-13T14:36:58.829Z,101092.73
2019-03-13T14:39:30.327Z,101094.45
2019-03-13T14:42:02.457Z,101093.15
2019-03-13T14:44:33.602Z,101095.45
2019-03-13T14:47:05.971Z,101094.73
2019-03-13T14:49:37.476Z,101098.20
2019-03-13T14:52:08.696Z,101097.57
2019-03-13T14:54:40.876Z,101099.48
2019-03-13T14:57:12.235Z,101099.45
2019-03-13T14:59:44.542Z,101101.43
2019-03-13T15:02:15.665Z,101101.00
2019-03-13T15:04:47.099Z,101105.91
2019-03-13T15:07:18.243Z,101098.94
2019-03-13T15:09:51.429Z,101099.95
2019-03-13T15:12:22.846Z,101106.88
2019-03-13T15:14:54.226Z,101103.57
2019-03-13T15:17:25.787Z,101113.67
2019-03-13T15:19:58.828Z,101111.41
2019-03-13T15:22:32.736Z,101110.48
2019-03-13T15:25:07.002Z,101113.58
2019-03-13T15:27:38.426Z,101105.68
2019-03-13T15:30:21.790Z,101122.58
2019-03-13T15:32:53.169Z,101119.81
2019-03-13T15:35:24.467Z,101116.52
2019-03-13T15:37:55.665Z,101128.48
2019-03-13T15:40:27.103Z,101129.34
2019-03-13T15:42:58.338Z,101136.52
2019-03-13T15:45:33.983Z,101135.84
2019-03-13T15:48:06.474Z,101145.20
2019-03-13T15:50:37.751Z,101139.52
2019-03-13T15:53:09.118Z,101155.22
2019-03-13T15:55:40.393Z,101153.02
2019-03-13T15:58:11.728Z,101153.77
2019-03-13T16:00:49.985Z,101147.42
2019-03-13T16:03:24.330Z,101159.36
2019-03-13T16:05:55.646Z,101155.22
2019-03-13T16:08:26.943Z,101152.37
2019-03-13T16:10:58.415Z,101152.16
2019-03-13T16:13:29.562Z,101158.11
2019-03-13T16:16:04.046Z,101154.97
2019-03-13T16:18:36.347Z,101154.34
2019-03-13T16:21:07.586Z,101163.22
2019-03-13T16:23:38.834Z,101162.82
2019-03-13T16:26:10.218Z,101171.19
2019-03-13T16:28:42.009Z,101168.15
2019-03-13T16:31:13.135Z,101164.03
2019-03-13T16:33:44.787Z,101156.58
2019-03-13T16:36:16.053Z,101160.75
2019-03-13T16:38:47.401Z,101168.67
2019-03-13T16:41:19.789Z,101175.21
2019-03-13T16:43:51.861Z,101179.34
2019-03-13T16:46:23.118Z,101174.06
2019-03-13T16:48:55.836Z,101179.51
2019-03-13T16:51:27.001Z,101182.78
2019-03-13T16:54:00.403Z,101185.73
2019-03-13T16:56:33.915Z,101186.89
2019-03-13T16:59:05.354Z,101194.04
2019-03-13T17:01:36.599Z,101193.28
2019-03-13T17:04:08.009Z,101205.14
2019-03-13T17:06:39.550Z,101203.66
2019-03-13T17:09:11.588Z,101199.08
2019-03-13T17:11:44.324Z,101212.09
2019-03-13T17:14:15.641Z,101211.73
2019-03-13T17:16:46.813Z,101208.11
2019-03-13T17:19:17.928Z,101217.40
2019-03-13T17:21:52.013Z,101222.21
2019-03-13T17:24:23.335Z,101221.68
2019-03-13T17:26:54.690Z,101216.05
2019-03-13T17:29:25.983Z,101220.16
2019-03-13T17:31:57.142Z,101218.02
2019-03-13T17:34:33.285Z,101223.97
2019-03-13T17:37:04.654Z,101224.98
2019-03-13T17:39:36.257Z,101218.72
2019-03-13T17:42:09.914Z,101223.69
2019-03-13T17:44:41.314Z,101233.08
2019-03-13T17:47:12.718Z,101232.45
2019-03-13T17:49:44.979Z,101226.43
2019-03-13T17:52:16.640Z,101224.27
2019-03-13T17:54:48.029Z,101228.83
2019-03-13T17:57:19.288Z,101225.42
2019-03-13T17:59:50.802Z,101228.12
2019-03-13T18:02:25.882Z,101225.94
2019-03-13T18:04:58.527Z,101226.10
2019-03-13T18:07:30.013Z,101233.08
2019-03-13T18:10:01.239Z,101236.63
2019-03-13T18:12:32.451Z,101231.45
2019-03-13T18:15:05.024Z,101237.12
2019-03-13T18:17:36.663Z,101242.29
2019-03-13T18:20:13.521Z,101244.83
2019-03-13T18:22:44.871Z,101245.78
2019-03-13T18:25:18.409Z,101249.23
2019-03-13T18:27:51.265Z,101245.12
2019-03-13T18:30:24.350Z,101241.48
2019-03-13T18:32:59.085Z,101240.24
2019-03-13T18:35:30.572Z,101240.40
2019-03-13T18:38:01.880Z,101241.61
2019-03-13T18:40:33.435Z,101247.50
2019-03-13T18:43:05.095Z,101248.14
2019-03-13T18:45:37.504Z,101251.55
2019-03-13T18:48:09.029Z,101246.13
2019-03-13T18:50:41.199Z,101249.06
2019-03-13T18:53:12.708Z,101247.75
2019-03-13T18:55:44.061Z,101251.69
2019-03-13T18:58:16.467Z,101251.98
2019-03-13T19:00:48.040Z,101243.66
2019-03-13T19:03:19.170Z,101252.45
2019-03-13T19:05:50.341Z,101250.77
2019-03-13T19:08:21.464Z,101246.02
2019-03-13T19:10:52.934Z,101258.41
2019-03-13T19:13:25.877Z,101258.82
2019-03-13T19:15:57.030Z,101258.11
2019-03-13T19:18:29.595Z,101256.22
2019-03-13T19:21:02.744Z,101265.30
2019-03-13T19:23:35.955Z,101259.97
2019-03-13T19:26:07.695Z,101271.09
2019-03-13T19:28:40.132Z,101271.33
2019-03-13T19:31:11.702Z,101273.59
2019-03-13T19:33:43.526Z,101261.54
2019-03-13T19:36:14.908Z,101268.10
2019-03-13T19:38:46.204Z,101268.20
2019-03-13T19:41:17.713Z,101273.05
2019-03-13T19:43:50.301Z,101281.16
2019-03-13T19:46:21.677Z,101274.31
2019-03-13T19:48:53.219Z,101280.01
2019-03-13T19:51:25.770Z,101272.98
2019-03-13T19:53:57.190Z,101274.72
2019-03-13T19:56:28.880Z,101277.36
2019-03-13T19:59:01.451Z,101281.84
2019-03-13T20:01:32.916Z,101282.47
2019-03-13T20:04:05.584Z,101284.91
2019-03-13T20:06:42.337Z,101285.58
2019-03-13T20:09:10.220Z,101281.76
2019-03-13T20:11:41.464Z,101280.19
2019-03-13T20:14:12.920Z,101280.22
2019-03-13T20:16:46.718Z,101287.44
2019-03-13T20:19:18.390Z,101283.02
2019-03-13T20:21:49.898Z,101284.59
2019-03-13T20:24:21.373Z,101281.99
2019-03-13T20:26:52.860Z,101280.93
2019-03-13T20:29:24.194Z,101288.15
2019-03-13T20:31:55.437Z,101294.95
2019-03-13T20:34:26.991Z,101294.02
2019-03-13T20:36:58.807Z,101296.77
2019-03-13T20:39:30.897Z,101296.77
2019-03-13T20:42:03.714Z,101292.30
2019-03-13T20:44:35.372Z,101296.06
2019-03-13T20:47:06.761Z,101301.11
2019-03-13T20:49:38.667Z,101302.95
2019-03-13T20:52:10.814Z,101298.19
2019-03-13T20:54:42.322Z,101297.66
2019-03-13T20:57:13.934Z,101296.11
2019-03-13T20:59:45.403Z,101301.06
2019-03-13T21:02:17.125Z,101294.80
2019-03-13T21:04:48.347Z,101290.70
2019-03-13T21:07:19.867Z,101290.45
2019-03-13T21:09:51.326Z,101299.50
2019-03-13T21:12:23.124Z,101301.43
2019-03-13T21:14:55.498Z,101300.77
2019-03-13T21:17:28.441Z,101299.29
2019-03-13T21:19:59.643Z,101303.88
2019-03-13T21:22:31.094Z,101302.97
2019-03-13T21:25:02.606Z,101307.68
2019-03-13T21:27:34.859Z,101302.97
2019-03-13T21:30:15.039Z,101303.12
2019-03-13T21:32:47.079Z,101306.72
2019-03-13T21:35:18.445Z,101303.81
2019-03-13T21:37:49.800Z,101305.01
2019-03-13T21:40:26.255Z,101305.01
2019-03-13T21:42:57.529Z,101303.81
2019-03-13T21:45:40.534Z,101307.47
2019-03-13T21:48:02.099Z,101308.90
2019-03-13T21:50:33.497Z,101305.87
2019-03-13T21:53:06.005Z,101301.19
2019-03-13T21:55:39.688Z,101299.62
2019-03-13T21:58:11.126Z,101301.27
2019-03-13T22:00:43.774Z,101298.36
2019-03-13T22:03:27.575Z,101300.94
2019-03-13T22:05:48.242Z,101299.33
2019-03-13T22:08:19.412Z,101299.33
2019-03-13T22:10:55.086Z,101294.84
2019-03-13T22:13:30.595Z,101288.05
2019-03-13T22:16:03.169Z,101300.66
2019-03-13T22:18:34.735Z,101292.56
2019-03-13T22:21:06.077Z,101292.90
2019-03-13T22:23:37.419Z,101292.68
2019-03-13T22:26:08.846Z,101296.39
2019-03-13T22:28:40.328Z,101295.87
2019-03-13T22:31:11.499Z,101299.72
2019-03-13T22:33:43.034Z,101293.03
2019-03-13T22:36:14.340Z,101290.19
2019-03-13T22:38:45.993Z,101289.10
2019-03-13T22:41:17.678Z,101291.54
2019-03-13T22:43:48.794Z,101290.56
2019-03-13T22:46:20.048Z,101285.89
2019-03-13T22:48:58.061Z,101291.31
2019-03-13T22:51:24.512Z,101289.70
2019-03-13T22:53:57.914Z,101289.70
2019-03-13T22:56:29.260Z,101294.61
2019-03-13T22:59:00.714Z,101297.00
2019-03-13T23:01:32.015Z,101303.43
2019-03-13T23:04:03.397Z,101299.91
2019-03-13T23:06:36.515Z,101295.65
2019-03-13T23:09:11.642Z,101292.51
2019-03-13T23:11:42.203Z,101287.42
2019-03-13T23:14:13.302Z,101287.53
2019-03-13T23:16:44.394Z,101287.27
2019-03-13T23:19:17.430Z,101291.09
2019-03-13T23:21:48.903Z,101291.53
2019-03-13T23:24:20.151Z,101293.59
2019-03-13T23:26:51.410Z,101288.25
2019-03-13T23:29:22.846Z,101290.16
2019-03-13T23:31:54.084Z,101289.78
2019-03-13T23:34:25.240Z,101288.20
2019-03-13T23:36:56.829Z,101279.34
2019-03-13T23:39:28.147Z,101282.48
2019-03-13T23:41:59.426Z,101281.39
2019-03-13T23:44:30.748Z,101279.45
2019-03-13T23:47:01.986Z,101285.31
2019-03-13T23:49:33.239Z,101279.77
2019-03-13T23:52:04.440Z,101283.02
2019-03-13T23:54:36.764Z,101280.51
2019-03-13T23:57:08.421Z,101285.44
2019-03-13T23:59:39.597Z,101288.51
